createdAt,value
2022-12-08T00:00:50.403Z,100295.84
2022-12-08T00:03:17.172Z,100312.25
2022-12-08T00:06:07.470Z,100325.97
2022-12-08T00:08:53.014Z,100291.13
2022-12-08T00:11:19.929Z,100319.72
2022-12-08T00:13:46.608Z,100316.22
2022-12-08T00:16:13.039Z,100296.78
2022-12-08T00:18:39.419Z,100317.75
2022-12-08T00:21:06.242Z,100317.56
2022-12-08T00:23:32.526Z,100314.03
2022-12-08T00:26:05.040Z,100320.72
2022-12-08T00:28:32.413Z,100300.28
2022-12-08T00:30:58.772Z,100329.94
2022-12-08T00:33:25.270Z,100330.69
2022-12-08T00:35:51.924Z,100332.34
2022-12-08T00:38:18.226Z,100336.50
2022-12-08T00:40:47.753Z,100332.94
2022-12-08T00:43:14.605Z,100331.94
2022-12-08T00:45:41.508Z,100335.97
2022-12-08T00:48:07.939Z,100332.47
2022-12-08T00:50:34.595Z,100344.22
2022-12-08T00:53:00.916Z,100340.84
2022-12-08T00:55:27.220Z,100341.91
2022-12-08T00:57:53.780Z,100335.28
2022-12-08T01:00:20.454Z,100337.09
2022-12-08T01:02:46.802Z,100338.19
2022-12-08T01:05:13.450Z,100340.16
2022-12-08T01:07:39.763Z,100335.37
2022-12-08T01:10:07.138Z,100341.63
2022-12-08T01:12:33.919Z,100344.41
2022-12-08T01:15:02.551Z,100351.38
2022-12-08T01:17:29.261Z,100348.03
2022-12-08T01:19:55.875Z,100337.03
2022-12-08T01:22:22.188Z,100344.75
2022-12-08T01:24:48.472Z,100349.97
2022-12-08T01:27:16.164Z,100350.09
2022-12-08T01:29:42.447Z,100322.28
2022-12-08T01:32:09.437Z,100338.34
2022-12-08T01:34:36.027Z,100336.63
2022-12-08T01:37:02.308Z,100316.56
2022-12-08T01:39:28.693Z,100343.34
2022-12-08T01:41:55.308Z,100336.56
2022-12-08T01:44:21.499Z,100332.19
2022-12-08T01:46:48.887Z,100336.56
2022-12-08T01:49:22.918Z,100334.84
2022-12-08T01:51:55.411Z,100332.25
2022-12-08T01:54:23.552Z,100312.84
2022-12-08T01:57:03.346Z,100331.41
2022-12-08T01:59:30.736Z,100300.91
2022-12-08T02:01:58.181Z,100332.97
2022-12-08T02:04:24.769Z,100331.97
2022-12-08T02:06:51.920Z,100333.59
2022-12-08T02:09:19.632Z,100327.75
2022-12-08T02:11:46.285Z,100331.78
2022-12-08T02:14:13.102Z,100320.09
2022-12-08T02:16:50.151Z,100354.81
2022-12-08T02:19:54.970Z,100346.16
2022-12-08T02:22:47.660Z,100352.87
2022-12-08T02:25:26.636Z,100347.56
2022-12-08T02:28:22.836Z,100335.41
2022-12-08T02:30:55.454Z,100309.41
2022-12-08T02:33:56.223Z,100327.84
2022-12-08T02:36:26.257Z,100340.84
2022-12-08T02:39:02.186Z,100340.00
2022-12-08T02:41:35.578Z,100341.00
2022-12-08T02:44:22.071Z,100336.78
2022-12-08T02:46:52.989Z,100346.22
2022-12-08T02:49:19.270Z,100353.16
2022-12-08T02:51:45.563Z,100340.38
2022-12-08T02:54:12.159Z,100335.31
2022-12-08T02:57:05.044Z,100326.88
2022-12-08T02:59:37.673Z,100346.47
2022-12-08T03:02:06.675Z,100335.31
2022-12-08T03:05:07.857Z,100328.53
2022-12-08T03:07:41.711Z,100324.25
2022-12-08T03:10:22.838Z,100333.88
2022-12-08T03:12:52.405Z,100344.34
2022-12-08T03:15:20.507Z,100339.41
2022-12-08T03:17:50.237Z,100323.56
2022-12-08T03:20:21.066Z,100335.47
2022-12-08T03:22:49.810Z,100344.19
2022-12-08T03:25:17.642Z,100329.63
2022-12-08T03:27:44.076Z,100327.97
2022-12-08T03:30:11.057Z,100328.97
2022-12-08T03:32:59.046Z,100324.25
2022-12-08T03:35:31.045Z,100346.41
2022-12-08T03:38:10.735Z,100338.69
2022-12-08T03:40:37.856Z,100344.88
2022-12-08T03:43:04.394Z,100339.66
2022-12-08T03:45:30.702Z,100331.25
2022-12-08T03:47:57.581Z,100350.69
2022-12-08T03:50:23.947Z,100350.00
2022-12-08T03:52:50.264Z,100349.09
2022-12-08T03:55:17.085Z,100342.19
2022-12-08T03:57:43.614Z,100331.19
2022-12-08T04:00:14.211Z,100323.00
2022-12-08T04:02:40.931Z,100350.75
2022-12-08T04:05:07.746Z,100356.88
2022-12-08T04:07:34.019Z,100356.09
2022-12-08T04:10:00.566Z,100358.50
2022-12-08T04:12:26.836Z,100365.28
2022-12-08T04:14:53.113Z,100366.19
2022-12-08T04:17:19.698Z,100367.94
2022-12-08T04:19:45.977Z,100363.72
2022-12-08T04:22:12.274Z,100361.22
2022-12-08T04:24:38.866Z,100360.44
2022-12-08T04:27:05.153Z,100366.41
2022-12-08T04:29:31.459Z,100359.66
2022-12-08T04:31:58.100Z,100363.88
2022-12-08T04:34:24.482Z,100371.63
2022-12-08T04:36:50.768Z,100373.34
2022-12-08T04:39:17.351Z,100366.63
2022-12-08T04:41:43.621Z,100373.53
2022-12-08T04:44:09.900Z,100375.31
2022-12-08T04:46:41.688Z,100355.69
2022-12-08T04:49:09.588Z,100361.81
2022-12-08T04:51:35.908Z,100361.19
2022-12-08T04:54:02.507Z,100360.47
2022-12-08T04:56:28.786Z,100364.81
2022-12-08T04:58:55.068Z,100358.19
2022-12-08T05:01:21.736Z,100353.13
2022-12-08T05:03:48.084Z,100373.53
2022-12-08T05:06:14.559Z,100374.44
2022-12-08T05:08:41.915Z,100383.94
2022-12-08T05:11:11.143Z,100375.44
2022-12-08T05:13:37.435Z,100377.19
2022-12-08T05:16:12.530Z,100367.16
2022-12-08T05:18:40.251Z,100388.28
2022-12-08T05:21:07.276Z,100380.56
2022-12-08T05:23:33.751Z,100378.91
2022-12-08T05:26:00.040Z,100360.31
2022-12-08T05:28:43.307Z,100370.31
2022-12-08T05:31:11.379Z,100364.50
2022-12-08T05:33:38.079Z,100370.41
2022-12-08T05:36:04.441Z,100373.84
2022-12-08T05:38:30.835Z,100372.19
2022-12-08T05:40:57.418Z,100342.53
2022-12-08T05:43:23.732Z,100369.66
2022-12-08T05:45:50.450Z,100367.97
2022-12-08T05:48:17.191Z,100369.75
2022-12-08T05:50:48.018Z,100356.22
2022-12-08T05:53:15.235Z,100368.91
2022-12-08T05:55:41.792Z,100372.28
2022-12-08T05:58:14.063Z,100352.81
2022-12-08T06:00:41.172Z,100373.84
2022-12-08T06:03:08.251Z,100368.81
2022-12-08T06:05:34.999Z,100354.50
2022-12-08T06:08:01.483Z,100373.03
2022-12-08T06:10:28.572Z,100360.31
2022-12-08T06:12:54.819Z,100358.66
2022-12-08T06:15:21.161Z,100370.41
2022-12-08T06:17:47.776Z,100373.84
2022-12-08T06:20:14.073Z,100379.81
2022-12-08T06:22:40.349Z,100362.81
2022-12-08T06:25:10.155Z,100373.72
2022-12-08T06:27:36.800Z,100341.56
2022-12-08T06:30:03.714Z,100374.50
2022-12-08T06:32:30.552Z,100378.72
2022-12-08T06:34:57.034Z,100372.63
2022-12-08T06:37:23.323Z,100359.00
2022-12-08T06:39:50.237Z,100368.09
2022-12-08T06:42:34.919Z,100378.12
2022-12-08T06:45:01.539Z,100384.78
2022-12-08T06:47:27.867Z,100379.41
2022-12-08T06:49:54.218Z,100353.88
2022-12-08T06:52:20.812Z,100375.72
2022-12-08T06:54:47.154Z,100375.56
2022-12-08T06:57:13.497Z,100341.41
2022-12-08T06:59:40.082Z,100388.56
2022-12-08T07:02:06.601Z,100390.81
2022-12-08T07:04:32.917Z,100389.69
2022-12-08T07:06:59.455Z,100366.59
2022-12-08T07:09:28.018Z,100384.97
2022-12-08T07:11:54.347Z,100390.91
2022-12-08T07:14:25.114Z,100391.69
2022-12-08T07:16:52.304Z,100396.87
2022-12-08T07:19:19.036Z,100408.91
2022-12-08T07:21:45.683Z,100410.47
2022-12-08T07:24:12.123Z,100395.09
2022-12-08T07:26:39.938Z,100412.63
2022-12-08T07:29:06.522Z,100420.03
2022-12-08T07:31:32.824Z,100417.13
2022-12-08T07:33:59.119Z,100411.78
2022-12-08T07:36:26.116Z,100417.59
2022-12-08T07:38:55.811Z,100386.03
2022-12-08T07:41:24.096Z,100415.34
2022-12-08T07:43:51.567Z,100403.22
2022-12-08T07:46:20.370Z,100417.66
2022-12-08T07:48:47.174Z,100422.94
2022-12-08T07:51:15.760Z,100433.47
2022-12-08T07:53:47.217Z,100428.53
2022-12-08T07:56:16.616Z,100422.63
2022-12-08T07:58:43.042Z,100417.66
2022-12-08T08:01:39.397Z,100423.63
2022-12-08T08:04:06.609Z,100435.94
2022-12-08T08:06:34.102Z,100414.41
2022-12-08T08:09:01.111Z,100430.31
2022-12-08T08:11:28.230Z,100441.97
2022-12-08T08:13:54.577Z,100437.81
2022-12-08T08:16:21.609Z,100435.34
2022-12-08T08:18:49.702Z,100437.06
2022-12-08T08:21:43.791Z,100430.41
2022-12-08T08:24:03.552Z,100423.72
2022-12-08T08:26:31.573Z,100414.81
2022-12-08T08:28:57.866Z,100422.03
2022-12-08T08:31:25.892Z,100418.41
2022-12-08T08:33:52.826Z,100429.47
2022-12-08T08:36:19.347Z,100424.50
2022-12-08T08:38:46.048Z,100429.78
2022-12-08T08:41:12.368Z,100420.53
2022-12-08T08:43:39.301Z,100421.22
2022-12-08T08:46:09.056Z,100425.19
2022-12-08T08:48:36.287Z,100420.97
2022-12-08T08:51:10.720Z,100414.72
2022-12-08T08:53:38.371Z,100416.47
2022-12-08T08:56:10.753Z,100414.81
2022-12-08T08:58:37.440Z,100380.88
2022-12-08T09:01:04.092Z,100335.09
2022-12-08T09:03:30.500Z,100415.44
2022-12-08T09:05:58.192Z,100412.88
2022-12-08T09:08:25.128Z,100419.22
2022-12-08T09:10:51.678Z,100414.62
2022-12-08T09:13:18.252Z,100423.87
2022-12-08T09:15:44.732Z,100421.31
2022-12-08T09:18:11.167Z,100416.59
2022-12-08T09:20:37.910Z,100400.19
2022-12-08T09:23:04.928Z,100412.00
2022-12-08T09:25:31.256Z,100377.97
2022-12-08T09:27:57.876Z,100397.94
2022-12-08T09:30:24.258Z,100385.00
2022-12-08T09:32:50.598Z,100380.22
2022-12-08T09:35:17.444Z,100381.31
2022-12-08T09:37:46.262Z,100343.94
2022-12-08T09:40:18.133Z,100366.28
2022-12-08T09:42:52.759Z,100387.81
2022-12-08T09:45:20.236Z,100368.66
2022-12-08T09:48:06.736Z,100386.78
2022-12-08T09:50:39.875Z,100393.63
2022-12-08T09:53:10.575Z,100383.03
2022-12-08T09:55:55.931Z,100389.78
2022-12-08T09:58:32.943Z,100329.72
2022-12-08T10:00:59.365Z,100374.41
2022-12-08T10:03:29.893Z,100384.25
2022-12-08T10:06:06.161Z,100386.63
2022-12-08T10:08:59.658Z,100374.41
2022-12-08T10:11:33.171Z,100372.44
2022-12-08T10:14:24.776Z,100377.78
2022-12-08T10:16:57.313Z,100374.28
2022-12-08T10:19:25.862Z,100370.19
2022-12-08T10:21:53.509Z,100365.41
2022-12-08T10:24:37.352Z,100363.88
2022-12-08T10:27:05.784Z,100354.66
2022-12-08T10:29:32.193Z,100346.97
2022-12-08T10:31:59.721Z,100354.97
2022-12-08T10:34:26.423Z,100354.53
2022-12-08T10:37:02.009Z,100328.22
2022-12-08T10:39:32.337Z,100341.66
2022-12-08T10:42:08.763Z,100347.06
2022-12-08T10:45:07.209Z,100325.53
2022-12-08T10:47:38.133Z,100331.91
2022-12-08T10:50:27.740Z,100310.12
2022-12-08T10:53:00.229Z,100328.03
2022-12-08T10:55:27.720Z,100311.34
2022-12-08T10:57:54.127Z,100322.72
2022-12-08T11:00:29.609Z,100311.81
2022-12-08T11:03:02.335Z,100293.16
2022-12-08T11:05:35.953Z,100287.06
2022-12-08T11:08:06.007Z,100277.44
2022-12-08T11:10:38.043Z,100294.94
2022-12-08T11:13:07.056Z,100287.53
2022-12-08T11:15:39.307Z,100284.63
2022-12-08T11:18:30.492Z,100283.25
2022-12-08T11:21:07.437Z,100283.78
2022-12-08T11:23:36.305Z,100274.63
2022-12-08T11:26:30.381Z,100250.75
2022-12-08T11:28:57.770Z,100247.75
2022-12-08T11:31:41.568Z,100253.47
2022-12-08T11:34:11.784Z,100267.00
2022-12-08T11:36:38.399Z,100271.66
2022-12-08T11:39:05.228Z,100253.16
2022-12-08T11:41:38.976Z,100260.16
2022-12-08T11:44:22.383Z,100251.97
2022-12-08T11:46:51.965Z,100252.31
2022-12-08T11:49:18.929Z,100248.72
2022-12-08T11:51:54.127Z,100242.00
2022-12-08T11:54:27.657Z,100238.94
2022-12-08T11:57:02.056Z,100206.34
2022-12-08T11:59:33.711Z,100247.13
2022-12-08T12:02:03.290Z,100234.34
2022-12-08T12:04:47.806Z,100243.13
2022-12-08T12:07:44.719Z,100240.53
2022-12-08T12:10:32.447Z,100246.91
2022-12-08T12:13:14.421Z,100237.00
2022-12-08T12:15:51.442Z,100218.38
2022-12-08T12:18:35.926Z,100207.72
2022-12-08T12:21:16.234Z,100218.44
2022-12-08T12:23:45.907Z,100204.28
2022-12-08T12:26:22.199Z,100197.66
2022-12-08T12:29:07.954Z,100202.84
2022-12-08T12:31:43.982Z,100207.44
2022-12-08T12:34:32.343Z,100156.44
2022-12-08T12:37:10.235Z,100205.72
2022-12-08T12:39:57.996Z,100161.63
2022-12-08T12:42:38.758Z,100189.91
2022-12-08T12:45:17.181Z,100197.34
2022-12-08T12:47:52.366Z,100201.22
2022-12-08T12:50:33.100Z,100186.66
2022-12-08T12:53:22.360Z,100197.94
2022-12-08T12:56:03.644Z,100193.66
2022-12-08T12:58:31.625Z,100187.28
2022-12-08T13:01:10.304Z,100196.34
2022-12-08T13:04:23.496Z,100183.41
2022-12-08T13:06:50.797Z,100186.25
2022-12-08T13:09:32.836Z,100161.16
2022-12-08T13:12:01.651Z,100173.31
2022-12-08T13:14:35.728Z,100169.28
2022-12-08T13:17:16.753Z,100117.81
2022-12-08T13:19:51.695Z,100119.91
2022-12-08T13:22:46.420Z,100155.97
2022-12-08T13:25:44.176Z,100156.56
2022-12-08T13:28:21.946Z,100161.91
2022-12-08T13:31:03.739Z,100158.41
2022-12-08T13:33:33.338Z,100141.69
2022-12-08T13:36:28.134Z,100158.06
2022-12-08T13:38:57.894Z,100149.88
2022-12-08T13:41:37.834Z,100139.63
2022-12-08T13:45:03.602Z,100107.03
2022-12-08T13:58:40.837Z,100136.22
2022-12-08T14:01:22.885Z,100127.34
2022-12-08T14:06:46.497Z,100147.09
2022-12-08T14:09:19.645Z,100167.47
2022-12-08T14:12:01.113Z,100146.91
2022-12-08T14:15:02.587Z,100174.12
2022-12-08T14:17:29.984Z,100188.28
2022-12-08T14:20:02.341Z,100172.09
2022-12-08T14:22:36.443Z,100176.53
2022-12-08T14:25:05.116Z,100165.87
2022-12-08T14:27:35.357Z,100171.63
2022-12-08T14:30:15.931Z,100137.31
2022-12-08T14:32:48.456Z,100170.66
2022-12-08T14:35:26.975Z,100151.12
2022-12-08T14:37:59.042Z,100155.34
2022-12-08T14:40:34.346Z,100097.53
2022-12-08T14:43:10.228Z,100161.22
2022-12-08T14:45:39.154Z,100131.63
2022-12-08T14:48:38.650Z,100173.28
2022-12-08T14:51:19.134Z,100163.69
2022-12-08T14:54:05.944Z,100106.88
2022-12-08T14:56:51.878Z,100147.25
2022-12-08T14:59:28.877Z,100146.31
2022-12-08T15:02:13.478Z,100140.34
2022-12-08T15:04:45.889Z,100122.53
2022-12-08T15:07:27.401Z,100126.19
2022-12-08T15:10:15.907Z,100121.16
2022-12-08T15:13:09.585Z,100115.34
2022-12-08T15:15:47.299Z,100120.66
2022-12-08T15:18:19.739Z,100115.84
2022-12-08T15:20:51.793Z,100101.63
2022-12-08T15:23:31.179Z,100110.97
2022-12-08T15:25:58.810Z,100110.31
2022-12-08T15:28:30.313Z,100083.41
2022-12-08T15:30:57.395Z,100089.88
2022-12-08T15:33:24.131Z,100066.75
2022-12-08T15:35:50.887Z,100082.00
2022-12-08T15:38:21.404Z,100097.06
2022-12-08T15:40:48.073Z,100099.84
2022-12-08T15:43:14.616Z,100100.12
2022-12-08T15:45:51.817Z,100099.91
2022-12-08T15:48:27.128Z,100094.81
2022-12-08T15:50:54.384Z,100087.19
2022-12-08T15:53:20.764Z,100085.38
2022-12-08T15:56:10.810Z,100094.87
2022-12-08T16:01:20.795Z,100102.56
2022-12-08T16:09:39.657Z,100094.87
2022-12-08T16:12:40.949Z,100076.84
2022-12-08T16:18:00.612Z,100076.06
2022-12-08T16:20:43.919Z,100055.78
2022-12-08T16:23:41.097Z,100035.62
2022-12-08T16:26:28.374Z,100049.97
2022-12-08T16:28:55.020Z,100045.56
2022-12-08T16:31:23.425Z,100040.03
2022-12-08T16:33:49.897Z,100027.59
2022-12-08T16:36:16.211Z,100038.38
2022-12-08T16:38:42.830Z,100040.50
2022-12-08T16:41:34.375Z,100019.53
2022-12-08T16:44:05.440Z,100033.47
2022-12-08T16:46:32.170Z,100036.38
2022-12-08T16:48:59.114Z,100029.44
2022-12-08T16:51:27.292Z,100034.38
2022-12-08T16:53:57.140Z,100040.78
2022-12-08T16:56:30.434Z,100039.38
2022-12-08T16:58:59.125Z,100046.75
2022-12-08T17:01:25.609Z,100024.72
2022-12-08T17:04:22.579Z,100029.34
2022-12-08T17:06:38.624Z,100023.47
2022-12-08T17:09:05.263Z,100038.56
2022-12-08T17:11:37.474Z,100037.88
2022-12-08T17:14:05.907Z,100024.69
2022-12-08T17:16:32.327Z,100028.88
2022-12-08T17:18:58.820Z,99992.84
2022-12-08T17:21:25.516Z,100027.37
2022-12-08T17:23:51.930Z,100010.69
2022-12-08T17:26:18.218Z,100032.78
2022-12-08T17:28:59.998Z,100014.84
2022-12-08T17:31:29.865Z,100018.28
2022-12-08T17:34:01.698Z,100029.66
2022-12-08T17:36:28.045Z,100041.59
2022-12-08T17:38:55.127Z,100035.75
2022-12-08T17:41:21.751Z,100029.75
2022-12-08T17:43:48.064Z,100022.72
2022-12-08T17:46:21.194Z,100025.16
2022-12-08T17:48:47.910Z,100003.84
2022-12-08T17:51:14.576Z,100023.87
2022-12-08T17:53:40.954Z,100021.19
2022-12-08T17:56:14.832Z,100024.63
2022-12-08T17:58:41.084Z,100021.19
2022-12-08T18:01:11.557Z,100030.72
2022-12-08T18:03:38.885Z,100033.31
2022-12-08T18:06:09.738Z,100024.53
2022-12-08T18:08:36.682Z,100025.28
2022-12-08T18:11:04.017Z,100026.00
2022-12-08T18:13:30.496Z,100020.75
2022-12-08T18:15:56.866Z,100015.44
2022-12-08T18:18:23.677Z,100014.53
2022-12-08T18:20:50.201Z,99995.75
2022-12-08T18:23:17.335Z,99989.50
2022-12-08T18:25:44.367Z,99998.50
2022-12-08T18:28:10.727Z,99970.16
2022-12-08T18:30:37.466Z,99965.53
2022-12-08T18:33:04.968Z,99954.31
2022-12-08T18:35:31.310Z,99962.56
2022-12-08T18:37:58.491Z,99967.34
2022-12-08T18:40:25.107Z,99976.63
2022-12-08T18:42:51.507Z,99950.56
2022-12-08T18:45:22.597Z,99970.31
2022-12-08T18:47:50.850Z,99984.91
2022-12-08T18:50:17.660Z,99983.13
2022-12-08T18:52:45.459Z,99976.25
2022-12-08T18:55:12.311Z,99976.25
2022-12-08T18:57:40.282Z,99972.78
2022-12-08T19:00:08.030Z,99959.75
2022-12-08T19:02:36.150Z,99937.91
2022-12-08T19:05:02.650Z,99946.41
2022-12-08T19:07:28.969Z,99954.16
2022-12-08T19:09:56.214Z,99954.56
2022-12-08T19:12:22.753Z,99944.88
2022-12-08T19:14:49.108Z,99941.66
2022-12-08T19:17:15.744Z,99951.97
2022-12-08T19:19:42.054Z,99944.84
2022-12-08T19:22:08.448Z,99941.50
2022-12-08T19:24:36.668Z,99945.28
2022-12-08T19:27:04.441Z,99966.34
2022-12-08T19:29:30.822Z,99967.25
2022-12-08T19:31:57.530Z,99966.41
2022-12-08T19:34:24.287Z,99956.25
2022-12-08T19:36:50.624Z,99962.91
2022-12-08T19:39:40.795Z,99972.34
2022-12-08T19:42:32.980Z,99971.56
2022-12-08T19:45:07.016Z,99963.72
2022-12-08T19:47:33.539Z,99975.78
2022-12-08T19:50:19.016Z,99976.72
2022-12-08T19:52:45.424Z,99950.41
2022-12-08T19:55:12.635Z,99960.53
2022-12-08T19:57:38.940Z,99959.81
2022-12-08T20:00:06.725Z,99947.87
2022-12-08T20:02:36.614Z,99953.94
2022-12-08T20:05:07.578Z,99950.41
2022-12-08T20:07:34.204Z,99938.63
2022-12-08T20:10:00.734Z,99951.22
2022-12-08T20:12:27.375Z,99944.31
2022-12-08T20:14:53.680Z,99939.00
2022-12-08T20:17:19.995Z,99951.50
2022-12-08T20:19:46.621Z,99959.97
2022-12-08T20:22:13.312Z,99959.84
2022-12-08T20:24:39.697Z,99959.78
2022-12-08T20:27:06.365Z,99955.31
2022-12-08T20:29:32.841Z,99943.50
2022-12-08T20:31:59.292Z,99952.63
2022-12-08T20:34:26.035Z,99933.44
2022-12-08T20:36:52.405Z,99946.72
2022-12-08T20:39:18.955Z,99961.84
2022-12-08T20:41:46.364Z,99960.12
2022-12-08T20:44:12.819Z,99960.19
2022-12-08T20:46:39.361Z,99943.47
2022-12-08T20:49:06.082Z,99930.03
2022-12-08T20:51:33.539Z,99948.37
2022-12-08T20:54:00.320Z,99961.00
2022-12-08T20:56:27.186Z,99952.44
2022-12-08T20:58:53.931Z,99954.09
2022-12-08T21:01:23.010Z,99955.97
2022-12-08T21:03:50.420Z,99957.44
2022-12-08T21:06:21.048Z,99932.34
2022-12-08T21:08:47.495Z,99929.00
2022-12-08T21:11:14.257Z,99947.47
2022-12-08T21:13:40.549Z,99942.94
2022-12-08T21:16:11.770Z,99944.62
2022-12-08T21:18:39.866Z,99937.84
2022-12-08T21:21:08.903Z,99947.28
2022-12-08T21:23:35.621Z,99950.69
2022-12-08T21:26:02.678Z,99951.47
2022-12-08T21:28:28.978Z,99955.59
2022-12-08T21:30:55.854Z,99955.34
2022-12-08T21:33:22.796Z,99958.78
2022-12-08T21:35:49.337Z,99957.78
2022-12-08T21:38:15.786Z,99958.69
2022-12-08T21:40:42.966Z,99953.34
2022-12-08T21:43:09.425Z,99958.44
2022-12-08T21:45:35.852Z,99954.00
2022-12-08T21:48:11.031Z,99955.72
2022-12-08T21:50:38.330Z,99949.59
2022-12-08T21:53:05.203Z,99934.16
2022-12-08T21:55:31.600Z,99946.81
2022-12-08T21:58:00.972Z,99944.88
2022-12-08T22:00:28.067Z,99940.47
2022-12-08T22:02:55.036Z,99916.72
2022-12-08T22:05:21.983Z,99910.84
2022-12-08T22:07:48.496Z,99940.34
2022-12-08T22:10:15.401Z,99936.88
2022-12-08T22:12:41.823Z,99926.94
2022-12-08T22:15:11.052Z,99936.88
2022-12-08T22:17:39.901Z,99924.84
2022-12-08T22:20:08.656Z,99927.47
2022-12-08T22:22:35.341Z,99939.16
2022-12-08T22:25:03.924Z,99937.56
2022-12-08T22:27:30.499Z,99941.88
2022-12-08T22:29:56.774Z,99904.06
2022-12-08T22:32:23.543Z,99926.94
2022-12-08T22:34:49.921Z,99931.84
2022-12-08T22:37:16.176Z,99946.09
2022-12-08T22:39:42.741Z,99931.97
2022-12-08T22:42:09.022Z,99947.19
2022-12-08T22:44:35.247Z,99940.34
2022-12-08T22:47:01.802Z,99942.81
2022-12-08T22:49:28.898Z,99942.66
2022-12-08T22:51:55.369Z,99940.13
2022-12-08T22:54:21.944Z,99944.41
2022-12-08T22:56:48.246Z,99939.16
2022-12-08T22:59:14.702Z,99935.06
2022-12-08T23:01:41.315Z,99934.19
2022-12-08T23:04:14.177Z,99938.53
2022-12-08T23:06:43.923Z,99935.19
2022-12-08T23:09:10.467Z,99933.50
2022-12-08T23:11:37.088Z,99911.69
2022-12-08T23:14:03.869Z,99927.56
2022-12-08T23:16:30.465Z,99926.66
2022-12-08T23:18:56.995Z,99908.63
2022-12-08T23:21:23.968Z,99898.50
2022-12-08T23:23:50.490Z,99924.63
2022-12-08T23:26:22.456Z,99895.47
2022-12-08T23:28:49.760Z,99908.13
2022-12-08T23:31:16.977Z,99928.31
2022-12-08T23:33:43.796Z,99924.13
2022-12-08T23:36:11.099Z,99910.72
2022-12-08T23:38:37.786Z,99928.31
2022-12-08T23:41:06.581Z,99917.44
2022-12-08T23:43:33.560Z,99923.41
2022-12-08T23:45:59.993Z,99916.72
2022-12-08T23:48:27.995Z,99917.50
2022-12-08T23:50:55.014Z,99902.37
2022-12-08T23:53:21.325Z,99914.78
2022-12-08T23:55:47.899Z,99912.28
2022-12-08T23:58:14.484Z,99899.00
